This is the latest recevied weather packets stored in our database for station/object EA5AER-5. If no packets are shown the sender has not sent any weather packets the latest 10 day(s).
| Time | Temp. | Humidity | Pressure | Rain* | Wind** | Luminosity | Snow |
|---|---|---|---|---|---|---|---|
| 1777486193 | 19.44° C | 78% | 1008.6 hPa | 0 mm | - | 86 W/m² | - |
| 1777484978 | 19.44° C | 78% | 1008.8 hPa | 0 mm | - | 135 W/m² | - |
| 1777483699 | 19.44° C | 77% | 1008.4 hPa | 0 mm | - | 223 W/m² | - |
| 1777482460 | 19.44° C | 77% | 1008.4 hPa | 0 mm | - | 223 W/m² | - |
| 1777481201 | 21.11° C | 60% | 1008.7 hPa | 0 mm | - | 260 W/m² | - |
| 1777480009 | 21.11° C | 64% | 1008.7 hPa | 0 mm | - | 341 W/m² | - |
| 1777478880 | 20° C | 65% | 1008.7 hPa | 0 mm | - | 376 W/m² | - |
| 1777477645 | 20° C | 69% | 1008.7 hPa | 0 mm | - | 418 W/m² | - |
| 1777476505 | 20.56° C | 68% | 1008.8 hPa | 0 mm | - | 575 W/m² | - |
| 1777475188 | 20.56° C | 70% | 1008.9 hPa | 0 mm | - | 615 W/m² | - |
| 1777473872 | 20.56° C | 71% | 1008.9 hPa | 0 mm | - | 640 W/m² | - |
| 1777472628 | 20° C | 74% | 1009.3 hPa | 0 mm | - | 805 W/m² | - |
| 1777471359 | 20° C | 74% | 1009.3 hPa | 0 mm | - | 805 W/m² | - |
| 1777470180 | 20° C | 74% | 1009.3 hPa | 0 mm | - | 805 W/m² | - |
| 1777468980 | 20° C | 74% | 1009.3 hPa | 0 mm | - | 805 W/m² | - |
| 1777467741 | 19.44° C | 69% | 1009.2 hPa | 0 mm | - | 840 W/m² | - |
| 1777466455 | 19.44° C | 69% | 1009.2 hPa | 0 mm | - | 840 W/m² | - |
| 1777465222 | 20° C | 74% | 1009.4 hPa | 0 mm | - | 942 W/m² | - |
| 1777464053 | 20° C | 74% | 1009.4 hPa | 0 mm | - | 942 W/m² | - |
| 1777462864 | 19.44° C | 76% | 1009.5 hPa | 0 mm | - | 902 W/m² | - |
| 1777461570 | 18.89° C | 78% | 1009.7 hPa | 0 mm | - | 427 W/m² | - |
| 1777460361 | 19.44° C | 77% | 1009.6 hPa | 0 mm | - | 401 W/m² | - |
| 1777459133 | 18.89° C | 76% | 1009.8 hPa | 0.25 mm | - | 758 W/m² | - |
| 1777457933 | 18.89° C | 76% | 1009.8 hPa | 0.25 mm | - | 758 W/m² | - |
| 1777456785 | 18.89° C | 76% | 1009.8 hPa | 0.25 mm | - | 758 W/m² | - |
* Rain latest hour (hover to see other rain measurements)
** Current wind speed in m/s (hover to see current wind gust speed)